Time;durP1;ratioP1;P1;durP2;ratioP2;P2;SDS_P1;SDS_P2;PMS_P1;PMS_P2;Temp;Humidity;BMP_temperature;BMP_pressure;BME280_temperature;BME280_humidity;BME280_pressure;Samples;Min_cycle;Max_cycle;Signal;HPM_P1;HPM_P2
2023/12/01 00:02:16;;;;;;;41.53;25.83;;;;;;;;;;6226455;28;20038;-78
2023/12/01 00:05:18;;;;;;;45.60;25.13;;;;;;;;;;6225378;28;20038;-78
2023/12/01 00:08:20;;;;;;;45.15;26.33;;;;;;;;;;6214156;28;20045;-78
2023/12/01 00:11:22;;;;;;;73.00;35.47;;;;;;;;;;6195296;28;20041;-78
2023/12/01 00:14:24;;;;;;;63.25;33.25;;;;;;;;;;6227927;28;20045;-78
2023/12/01 00:17:26;;;;;;;63.15;32.90;;;;;;;;;;6204633;28;20125;-78
2023/12/01 00:20:28;;;;;;;58.72;31.88;;;;;;;;;;6217688;28;20057;-78
2023/12/01 00:23:32;;;;;;;53.53;29.27;;;;;;;;;;6200908;28;20123;-78
2023/12/01 00:26:34;;;;;;;50.72;29.70;;;;;;;;;;6209055;28;20542;-78
2023/12/01 00:29:38;;;;;;;50.67;27.90;;;;;;;;;;6216593;28;20491;-78
2023/12/01 00:32:41;;;;;;;72.60;38.50;;;;;;;;;;6230672;28;20062;-78
2023/12/01 00:35:45;;;;;;;49.60;27.38;;;;;;;;;;6231917;28;20037;-79
2023/12/01 00:38:47;;;;;;;60.60;31.33;;;;;;;;;;6219455;28;20057;-76
2023/12/01 00:41:51;;;;;;;48.97;29.95;;;;;;;;;;6212154;28;20778;-77
2023/12/01 00:44:54;;;;;;;69.07;38.58;;;;;;;;;;6208547;28;20041;-76
2023/12/01 00:47:56;;;;;;;65.20;33.80;;;;;;;;;;6196009;28;20037;-76
2023/12/01 00:50:58;;;;;;;61.40;33.88;;;;;;;;;;6214377;28;20195;-76
2023/12/01 00:54:00;;;;;;;58.85;33.92;;;;;;;;;;6219588;28;20049;-76
2023/12/01 00:57:02;;;;;;;64.00;39.65;;;;;;;;;;6223729;28;20490;-77
2023/12/01 01:00:06;;;;;;;60.25;34.92;;;;;;;;;;6232050;28;20052;-77
2023/12/01 01:03:08;;;;;;;63.58;33.63;;;;;;;;;;6214073;28;20041;-76
2023/12/01 01:06:10;;;;;;;58.72;30.42;;;;;;;;;;6195908;28;20061;-77
2023/12/01 01:09:12;;;;;;;54.28;28.90;;;;;;;;;;6224404;28;20052;-77
2023/12/01 01:12:16;;;;;;;57.17;31.35;;;;;;;;;;6230620;28;20636;-75
2023/12/01 01:15:19;;;;;;;49.72;29.67;;;;;;;;;;6226259;28;20098;-76
2023/12/01 01:18:21;;;;;;;53.55;28.20;;;;;;;;;;6223393;28;20049;-76
2023/12/01 01:21:25;;;;;;;52.78;29.27;;;;;;;;;;6202070;28;20061;-75
2023/12/01 01:24:27;;;;;;;49.65;28.83;;;;;;;;;;6221932;28;20152;-76
2023/12/01 01:27:29;;;;;;;52.83;29.33;;;;;;;;;;6233670;28;20851;-76
2023/12/01 01:30:33;;;;;;;43.67;25.02;;;;;;;;;;6228113;28;20061;-76
2023/12/01 01:33:36;;;;;;;57.40;32.78;;;;;;;;;;6215281;28;20042;-76
2023/12/01 01:36:40;;;;;;;50.70;29.48;;;;;;;;;;6231436;28;20094;-76
2023/12/01 01:39:42;;;;;;;48.60;27.75;;;;;;;;;;6230086;28;20053;-76
2023/12/01 01:42:44;;;;;;;53.63;30.08;;;;;;;;;;6226698;28;20811;-76
2023/12/01 01:45:49;;;;;;;50.85;25.73;;;;;;;;;;6212072;28;20124;-76
2023/12/01 01:48:52;;;;;;;41.97;24.08;;;;;;;;;;6218197;28;20496;-75
2023/12/01 01:51:54;;;;;;;45.20;25.38;;;;;;;;;;6199654;28;20049;-75
2023/12/01 01:54:57;;;;;;;47.03;25.42;;;;;;;;;;6211275;28;20485;-76
2023/12/01 01:58:03;;;;;;;43.03;24.42;;;;;;;;;;6210304;28;20052;-76
2023/12/01 02:01:07;;;;;;;40.22;22.98;;;;;;;;;;6220040;28;20415;-77
2023/12/01 02:04:10;;;;;;;39.15;21.63;;;;;;;;;;6207822;28;20618;-76
2023/12/01 02:07:25;;;;;;;38.67;23.40;;;;;;;;;;6227778;28;20058;-76
2023/12/01 02:10:28;;;;;;;33.95;20.90;;;;;;;;;;6193019;28;20678;-76
2023/12/01 02:13:30;;;;;;;34.75;18.70;;;;;;;;;;6191305;28;20081;-76
2023/12/01 02:16:32;;;;;;;28.50;15.93;;;;;;;;;;6213963;28;20049;-76
2023/12/01 02:19:36;;;;;;;25.17;15.85;;;;;;;;;;6212815;28;20045;-76
2023/12/01 02:22:38;;;;;;;22.17;12.63;;;;;;;;;;6221091;28;20137;-77
2023/12/01 02:25:41;;;;;;;22.85;13.63;;;;;;;;;;6233570;28;20034;-76
2023/12/01 02:28:43;;;;;;;19.25;11.75;;;;;;;;;;6196967;28;20070;-76
2023/12/01 02:31:46;;;;;;;23.30;14.07;;;;;;;;;;6204840;28;20188;-77
2023/12/01 02:34:49;;;;;;;20.05;12.35;;;;;;;;;;6225827;28;20053;-76
2023/12/01 02:37:51;;;;;;;24.48;15.35;;;;;;;;;;6232197;28;20048;-77
2023/12/01 02:40:54;;;;;;;24.75;15.48;;;;;;;;;;6206762;28;20049;-77
2023/12/01 02:44:00;;;;;;;27.90;15.60;;;;;;;;;;6232353;28;20037;-77
2023/12/01 02:47:03;;;;;;;23.42;16.17;;;;;;;;;;6232677;28;20201;-77
2023/12/01 02:50:09;;;;;;;20.52;14.05;;;;;;;;;;6200617;28;20646;-77
2023/12/01 02:53:12;;;;;;;24.42;14.30;;;;;;;;;;6233334;28;20076;-78
2023/12/01 02:56:14;;;;;;;25.42;14.98;;;;;;;;;;6206081;28;20054;-75
2023/12/01 02:59:16;;;;;;;22.70;13.73;;;;;;;;;;6199446;28;20038;-77
2023/12/01 03:02:18;;;;;;;33.28;18.88;;;;;;;;;;6202995;28;20643;-77
2023/12/01 03:05:21;;;;;;;63.40;30.15;;;;;;;;;;6220202;28;20593;-76
2023/12/01 03:08:23;;;;;;;38.53;20.95;;;;;;;;;;6193505;28;20900;-77
2023/12/01 03:11:25;;;;;;;44.05;26.80;;;;;;;;;;6233170;28;20041;-77
2023/12/01 03:14:27;;;;;;;47.92;27.95;;;;;;;;;;6235274;28;20530;-77
2023/12/01 03:17:31;;;;;;;38.58;21.67;;;;;;;;;;6226740;28;20045;-77
2023/12/01 03:20:36;;;;;;;42.08;24.15;;;;;;;;;;6212403;28;20549;-77
2023/12/01 03:23:40;;;;;;;37.60;19.38;;;;;;;;;;6217588;28;20503;-77
2023/12/01 03:26:43;;;;;;;26.92;16.27;;;;;;;;;;6202599;28;20037;-77
2023/12/01 03:29:47;;;;;;;37.78;19.98;;;;;;;;;;6220365;28;20050;-77
2023/12/01 03:32:51;;;;;;;37.60;21.10;;;;;;;;;;6198334;28;20485;-77
2023/12/01 03:35:53;;;;;;;35.88;22.27;;;;;;;;;;6202822;28;20037;-77
2023/12/01 03:38:56;;;;;;;34.22;20.88;;;;;;;;;;6219070;28;20134;-77
2023/12/01 03:41:59;;;;;;;34.10;18.65;;;;;;;;;;6193077;28;20060;-77
2023/12/01 03:45:01;;;;;;;33.08;20.60;;;;;;;;;;6212505;28;20037;-77
2023/12/01 03:48:04;;;;;;;38.85;22.45;;;;;;;;;;6217309;28;20057;-77
2023/12/01 03:51:11;;;;;;;39.30;25.40;;;;;;;;;;6230605;28;20038;-77
2023/12/01 03:54:14;;;;;;;46.13;28.38;;;;;;;;;;6217923;28;20431;-77
2023/12/01 03:57:17;;;;;;;47.90;28.35;;;;;;;;;;6212053;28;20137;-77
2023/12/01 04:00:22;;;;;;;45.42;27.52;;;;;;;;;;6219228;28;20056;-77
2023/12/01 04:03:24;;;;;;;55.72;32.55;;;;;;;;;;6203963;28;20056;-77
2023/12/01 04:06:27;;;;;;;49.28;29.63;;;;;;;;;;6207439;28;20144;-78
2023/12/01 04:09:29;;;;;;;50.42;30.40;;;;;;;;;;6206669;28;20152;-77
2023/12/01 04:12:31;;;;;;;46.78;27.27;;;;;;;;;;6200473;28;20061;-77
2023/12/01 04:15:36;;;;;;;53.17;29.77;;;;;;;;;;6223910;28;20556;-77
2023/12/01 04:18:39;;;;;;;61.88;33.88;;;;;;;;;;6186547;28;20065;-76
2023/12/01 04:21:41;;;;;;;48.60;27.92;;;;;;;;;;6208438;28;20117;-77
2023/12/01 04:24:43;;;;;;;47.58;28.83;;;;;;;;;;6208233;28;20603;-77
2023/12/01 04:27:46;;;;;;;59.35;34.38;;;;;;;;;;6225697;28;20053;-76
2023/12/01 04:30:48;;;;;;;54.80;33.13;;;;;;;;;;6212312;28;20060;-76
2023/12/01 04:33:52;;;;;;;45.42;27.27;;;;;;;;;;6204273;28;20130;-77
2023/12/01 04:36:55;;;;;;;47.15;26.33;;;;;;;;;;6207203;28;20050;-77
2023/12/01 04:39:58;;;;;;;48.92;28.25;;;;;;;;;;6197428;28;20420;-77
2023/12/01 04:43:01;;;;;;;49.90;27.63;;;;;;;;;;6223438;28;20446;-77
2023/12/01 04:46:03;;;;;;;41.75;27.27;;;;;;;;;;6202506;28;20045;-77
2023/12/01 04:49:08;;;;;;;46.03;27.45;;;;;;;;;;6191566;28;20208;-77
2023/12/01 04:52:11;;;;;;;45.55;26.35;;;;;;;;;;6193999;28;20050;-77
2023/12/01 04:55:19;;;;;;;39.97;24.92;;;;;;;;;;6222862;28;20053;-77
2023/12/01 04:58:21;;;;;;;48.20;27.25;;;;;;;;;;6204009;28;20505;-77
2023/12/01 05:01:23;;;;;;;53.63;30.88;;;;;;;;;;6194698;28;20117;-77
2023/12/01 05:04:25;;;;;;;44.58;27.98;;;;;;;;;;6225114;28;20053;-77
2023/12/01 05:07:31;;;;;;;44.20;26.35;;;;;;;;;;6229082;28;20053;-77
2023/12/01 05:10:35;;;;;;;34.35;20.63;;;;;;;;;;6216132;28;20048;-77
2023/12/01 05:13:37;;;;;;;32.78;18.30;;;;;;;;;;6186393;28;20064;-77
2023/12/01 05:16:39;;;;;;;33.83;17.17;;;;;;;;;;6200794;28;20057;-77
2023/12/01 05:19:42;;;;;;;27.95;16.33;;;;;;;;;;6229030;28;20438;-77
2023/12/01 05:22:57;;;;;;;26.20;17.15;;;;;;;;;;6216345;28;20525;-77
2023/12/01 05:25:59;;;;;;;31.67;20.20;;;;;;;;;;6222101;28;20041;-75
2023/12/01 05:29:02;;;;;;;20.95;13.38;;;;;;;;;;6220976;28;20590;-77
2023/12/01 05:32:04;;;;;;;23.92;15.73;;;;;;;;;;6201795;28;20052;-76
2023/12/01 05:35:10;;;;;;;23.85;14.27;;;;;;;;;;6215424;28;20116;-78
2023/12/01 05:38:13;;;;;;;19.48;13.05;;;;;;;;;;6184992;28;20442;-77
2023/12/01 05:41:15;;;;;;;19.98;13.45;;;;;;;;;;6191090;28;20053;-79
2023/12/01 05:44:17;;;;;;;22.27;12.18;;;;;;;;;;6215571;28;20128;-76
2023/12/01 05:47:22;;;;;;;21.35;12.65;;;;;;;;;;6221267;28;20522;-76
2023/12/01 05:50:26;;;;;;;20.63;11.95;;;;;;;;;;6221708;28;20046;-76
2023/12/01 05:53:28;;;;;;;32.13;21.17;;;;;;;;;;6202502;28;20052;-78
2023/12/01 05:56:30;;;;;;;25.65;16.83;;;;;;;;;;6215612;28;20046;-77
2023/12/01 05:59:34;;;;;;;23.35;15.23;;;;;;;;;;6227912;28;20776;-78
2023/12/01 06:02:36;;;;;;;23.02;12.35;;;;;;;;;;6215395;28;20033;-78
2023/12/01 06:05:38;;;;;;;21.67;13.30;;;;;;;;;;6231430;28;20087;-76
2023/12/01 06:08:42;;;;;;;60.50;28.77;;;;;;;;;;6238922;28;20441;-75
2023/12/01 06:11:45;;;;;;;36.38;24.63;;;;;;;;;;6218973;28;20062;-75
2023/12/01 06:14:48;;;;;;;46.03;26.73;;;;;;;;;;6205777;28;20037;-74
2023/12/01 06:17:50;;;;;;;67.57;42.03;;;;;;;;;;6229735;28;20116;-74
2023/12/01 06:20:52;;;;;;;37.55;26.13;;;;;;;;;;6194864;28;20663;-74
2023/12/01 06:23:54;;;;;;;52.65;29.23;;;;;;;;;;6227934;28;20034;-74
2023/12/01 06:26:56;;;;;;;46.72;25.63;;;;;;;;;;6226386;28;20214;-74
2023/12/01 06:29:58;;;;;;;19.17;13.80;;;;;;;;;;6209902;28;20095;-74
2023/12/01 06:33:02;;;;;;;35.08;23.30;;;;;;;;;;6237952;28;20095;-74
2023/12/01 06:36:05;;;;;;;28.85;17.10;;;;;;;;;;6201323;28;20045;-75
2023/12/01 06:39:10;;;;;;;36.22;22.30;;;;;;;;;;6230106;28;20049;-75
2023/12/01 06:42:12;;;;;;;33.95;22.25;;;;;;;;;;6219437;28;20048;-75
2023/12/01 06:45:28;;;;;;;40.50;21.70;;;;;;;;;;6206506;28;20595;-75
2023/12/01 06:48:31;;;;;;;66.90;36.28;;;;;;;;;;6222703;28;20050;-75
2023/12/01 06:51:33;;;;;;;48.08;26.67;;;;;;;;;;6212403;28;20049;-75
2023/12/01 06:54:35;;;;;;;56.65;28.35;;;;;;;;;;6211561;28;20433;-74
2023/12/01 06:57:42;;;;;;;73.07;35.08;;;;;;;;;;6236999;28;20061;-74
2023/12/01 07:00:44;;;;;;;59.83;32.35;;;;;;;;;;6205919;28;20051;-73
2023/12/01 07:03:46;;;;;;;41.22;24.20;;;;;;;;;;6226146;28;20104;-74
2023/12/01 07:06:49;;;;;;;34.72;20.90;;;;;;;;;;6218589;28;20042;-75
2023/12/01 07:09:52;;;;;;;32.50;19.30;;;;;;;;;;6212050;28;20052;-78
2023/12/01 07:12:59;;;;;;;35.80;23.02;;;;;;;;;;6215881;28;20038;-78
2023/12/01 07:16:09;;;;;;;25.35;16.73;;;;;;;;;;6224590;28;20037;-79
2023/12/01 07:19:13;;;;;;;29.63;15.50;;;;;;;;;;6220044;28;20054;-78
2023/12/01 07:22:15;;;;;;;24.10;14.40;;;;;;;;;;6229266;28;20616;-77
2023/12/01 07:25:21;;;;;;;22.25;17.80;;;;;;;;;;6233997;28;20033;-79
2023/12/01 07:28:27;;;;;;;21.20;14.05;;;;;;;;;;6206853;28;20076;-79
2023/12/01 07:31:29;;;;;;;20.40;14.00;;;;;;;;;;6193901;28;20056;-80
2023/12/01 07:34:32;;;;;;;23.25;12.95;;;;;;;;;;6186369;28;20651;-81
2023/12/01 07:37:34;;;;;;;37.55;21.83;;;;;;;;;;6227699;28;20053;-80
2023/12/01 07:40:37;;;;;;;36.58;22.67;;;;;;;;;;6228250;28;20052;-78
2023/12/01 07:43:42;;;;;;;72.70;49.35;;;;;;;;;;6222530;28;20049;-78
2023/12/01 07:46:44;;;;;;;;;;;;;;;;;;6201044;28;20054;-77
2023/12/01 07:49:46;;;;;;;35.70;20.77;;;;;;;;;;6201373;28;19926;-79
2023/12/01 07:52:50;;;;;;;27.52;16.45;;;;;;;;;;6228999;28;20046;-79
2023/12/01 07:55:55;;;;;;;26.25;17.25;;;;;;;;;;6225524;28;20060;-79
2023/12/01 07:58:58;;;;;;;35.58;22.55;;;;;;;;;;6213267;28;20047;-77
2023/12/01 08:02:00;;;;;;;29.05;19.38;;;;;;;;;;6210407;28;20669;-77
2023/12/01 08:05:13;;;;;;;20.65;13.85;;;;;;;;;;6231015;28;20565;-77
2023/12/01 08:08:16;;;;;;;18.00;12.60;;;;;;;;;;6218712;28;20048;-77
2023/12/01 08:11:19;;;;;;;20.63;11.38;;;;;;;;;;6207429;28;20050;-77
2023/12/01 08:14:21;;;;;;;15.68;9.38;;;;;;;;;;6217372;28;20055;-78
2023/12/01 08:17:23;;;;;;;18.50;8.70;;;;;;;;;;6223909;28;20046;-78
2023/12/01 08:20:28;;;;;;;12.48;6.90;;;;;;;;;;6215733;28;20060;-78
2023/12/01 08:23:31;;;;;;;14.82;8.32;;;;;;;;;;6203287;28;20199;-79
2023/12/01 08:26:34;;;;;;;12.82;7.72;;;;;;;;;;6211818;28;20053;-77
2023/12/01 08:29:38;;;;;;;13.70;7.18;;;;;;;;;;6210297;28;20080;-78
2023/12/01 08:32:42;;;;;;;11.10;6.57;;;;;;;;;;6193457;28;20592;-77
2023/12/01 08:35:45;;;;;;;8.43;5.40;;;;;;;;;;6194150;28;20052;-79
2023/12/01 08:38:48;;;;;;;16.35;8.10;;;;;;;;;;6210265;28;21646;-77
2023/12/01 08:41:56;;;;;;;20.75;13.63;;;;;;;;;;6195062;28;20042;-78
2023/12/01 08:44:58;;;;;;;11.02;7.75;;;;;;;;;;6227732;28;20045;-81
2023/12/01 08:48:00;;;;;;;17.58;8.40;;;;;;;;;;6209210;28;20091;-78
2023/12/01 08:51:03;;;;;;;14.27;9.02;;;;;;;;;;6197741;28;20042;-78
2023/12/01 08:54:06;;;;;;;15.25;8.77;;;;;;;;;;6213720;28;20030;-80
2023/12/01 08:57:09;;;;;;;14.93;6.85;;;;;;;;;;6200591;28;20138;-78
2023/12/01 09:00:12;;;;;;;11.35;7.45;;;;;;;;;;6197322;28;20054;-77
2023/12/01 09:03:15;;;;;;;11.50;7.00;;;;;;;;;;6199383;28;20037;-78
2023/12/01 09:06:18;;;;;;;21.20;12.63;;;;;;;;;;6207899;28;20045;-77
2023/12/01 09:09:20;;;;;;;33.70;18.58;;;;;;;;;;6210694;28;20069;-76
2023/12/01 09:12:25;;;;;;;22.77;10.90;;;;;;;;;;6228982;28;20053;-76
2023/12/01 09:15:27;;;;;;;18.85;9.05;;;;;;;;;;6214599;28;20152;-76
2023/12/01 09:18:31;;;;;;;13.07;5.90;;;;;;;;;;6211305;28;20103;-76
2023/12/01 09:21:33;;;;;;;8.07;4.65;;;;;;;;;;6220008;28;20516;-77
2023/12/01 09:24:36;;;;;;;12.30;7.50;;;;;;;;;;6205024;28;20104;-77
2023/12/01 09:27:42;;;;;;;16.00;10.82;;;;;;;;;;6224949;28;20046;-75
2023/12/01 09:30:44;;;;;;;;;;;;;;;;;;6193383;28;20134;-76
2023/12/01 09:33:47;;;;;;;18.50;10.85;;;;;;;;;;6206727;28;19925;-77
2023/12/01 09:36:50;;;;;;;29.00;18.55;;;;;;;;;;6234240;28;20426;-76
2023/12/01 09:39:54;;;;;;;20.67;12.52;;;;;;;;;;6193776;28;20050;-76
2023/12/01 09:42:57;;;;;;;18.48;12.05;;;;;;;;;;6200051;28;20666;-76
2023/12/01 09:46:02;;;;;;;19.10;13.90;;;;;;;;;;6222181;28;20160;-75
2023/12/01 09:49:07;;;;;;;18.20;11.45;;;;;;;;;;6223048;28;20136;-76
2023/12/01 09:52:10;;;;;;;24.35;13.32;;;;;;;;;;6215620;28;20038;-76
2023/12/01 09:55:13;;;;;;;96.05;45.28;;;;;;;;;;6189535;28;20065;-76
2023/12/01 09:58:16;;;;;;;23.08;14.05;;;;;;;;;;6207975;28;20064;-76
2023/12/01 10:01:19;;;;;;;31.02;17.25;;;;;;;;;;6232108;28;20064;-76
2023/12/01 10:04:22;;;;;;;53.13;22.67;;;;;;;;;;6181990;28;20042;-75
2023/12/01 10:07:25;;;;;;;34.78;16.17;;;;;;;;;;6226221;28;20518;-76
2023/12/01 10:10:28;;;;;;;29.40;14.13;;;;;;;;;;6202118;28;20079;-76
2023/12/01 10:13:41;;;;;;;15.90;7.53;;;;;;;;;;6200642;28;20103;-75
2023/12/01 10:16:44;;;;;;;47.85;19.92;;;;;;;;;;6218561;28;20084;-75
2023/12/01 10:19:47;;;;;;;6.82;3.20;;;;;;;;;;6216814;28;20042;-76
2023/12/01 10:22:51;;;;;;;9.70;5.05;;;;;;;;;;6215967;28;20045;-76
2023/12/01 10:25:55;;;;;;;12.65;6.05;;;;;;;;;;6210098;28;20049;-76
2023/12/01 10:28:57;;;;;;;14.48;5.03;;;;;;;;;;6197639;28;20057;-76
2023/12/01 10:32:11;;;;;;;9.30;5.80;;;;;;;;;;6203891;28;20566;-76
2023/12/01 10:35:14;;;;;;;14.65;10.07;;;;;;;;;;6215743;28;20053;-77
2023/12/01 10:38:18;;;;;;;13.30;6.43;;;;;;;;;;6217724;28;20057;-77
2023/12/01 10:41:22;;;;;;;14.43;6.28;;;;;;;;;;6232523;28;20083;-77
2023/12/01 10:44:26;;;;;;;9.18;6.30;;;;;;;;;;6202984;28;20041;-77
2023/12/01 10:47:29;;;;;;;14.15;7.30;;;;;;;;;;6230213;28;20118;-77
2023/12/01 10:50:34;;;;;;;12.70;6.93;;;;;;;;;;6214357;28;20081;-78
2023/12/01 10:53:40;;;;;;;12.15;7.45;;;;;;;;;;6218534;28;20038;-78
2023/12/01 10:57:17;;;;;;;11.25;6.88;;;;;;;;;;6204542;28;20132;-79
2023/12/01 11:00:29;;;;;;;15.27;9.90;;;;;;;;;;6229661;28;20430;-79
2023/12/01 11:03:34;;;;;;;27.67;13.73;;;;;;;;;;6196313;28;20052;-78
2023/12/01 11:06:50;;;;;;;14.48;7.93;;;;;;;;;;6186956;28;20054;-78
2023/12/01 11:10:06;;;;;;;11.65;7.65;;;;;;;;;;6201448;28;20060;-78
2023/12/01 11:13:36;;;;;;;11.25;6.65;;;;;;;;;;6254999;28;20092;-78
2023/12/01 11:16:39;;;;;;;19.95;14.35;;;;;;;;;;6236377;28;20046;-77
2023/12/01 11:19:42;;;;;;;9.38;5.75;;;;;;;;;;6198471;28;20119;-77
2023/12/01 11:22:44;;;;;;;12.98;6.47;;;;;;;;;;6209486;28;20117;-77
2023/12/01 11:25:48;;;;;;;16.30;8.40;;;;;;;;;;6209057;28;20186;-78
2023/12/01 11:29:04;;;;;;;14.60;7.68;;;;;;;;;;6237474;28;20042;-78
2023/12/01 11:32:06;;;;;;;11.48;6.15;;;;;;;;;;6222748;28;20046;-78
2023/12/01 11:35:10;;;;;;;8.02;5.40;;;;;;;;;;6219930;28;20045;-78
2023/12/01 11:38:15;;;;;;;9.35;5.53;;;;;;;;;;6216849;28;20585;-78
2023/12/01 11:41:22;;;;;;;15.60;10.27;;;;;;;;;;6203972;28;20049;-76
2023/12/01 11:44:34;;;;;;;20.00;13.00;;;;;;;;;;6226590;28;20046;-78
2023/12/01 11:47:38;;;;;;;36.75;26.40;;;;;;;;;;6229309;28;20056;-78
2023/12/01 11:50:41;;;;;;;8.63;4.30;;;;;;;;;;6209605;28;20184;-77
2023/12/01 11:53:54;;;;;;;10.07;4.32;;;;;;;;;;6194912;28;20072;-76
2023/12/01 11:56:57;;;;;;;8.55;4.10;;;;;;;;;;6192317;28;20037;-76
2023/12/01 12:00:00;;;;;;;5.78;3.22;;;;;;;;;;6206001;28;20053;-77
2023/12/01 12:03:21;;;;;;;6.40;3.47;;;;;;;;;;6231190;28;20049;-76
2023/12/01 12:06:25;;;;;;;5.32;2.70;;;;;;;;;;6223804;28;20523;-76
2023/12/01 12:09:31;;;;;;;4.55;2.42;;;;;;;;;;6200574;28;20068;-76
2023/12/01 12:12:34;;;;;;;6.28;2.00;;;;;;;;;;6207695;28;20223;-76
2023/12/01 12:15:37;;;;;;;3.00;1.60;;;;;;;;;;6230445;28;20049;-76
2023/12/01 12:18:40;;;;;;;7.15;2.35;;;;;;;;;;6226196;28;20524;-76
2023/12/01 12:21:42;;;;;;;15.63;7.10;;;;;;;;;;6212144;28;20081;-76
2023/12/01 12:24:46;;;;;;;5.47;2.92;;;;;;;;;;6204743;28;20049;-76
2023/12/01 12:27:48;;;;;;;5.63;2.53;;;;;;;;;;6230645;28;20526;-76
2023/12/01 12:30:55;;;;;;;7.43;2.08;;;;;;;;;;6216245;28;20188;-74
2023/12/01 12:33:59;;;;;;;15.52;7.05;;;;;;;;;;6228236;28;20057;-74
2023/12/01 12:37:03;;;;;;;4.93;2.63;;;;;;;;;;6206090;28;20050;-75
2023/12/01 12:40:08;;;;;;;15.00;9.07;;;;;;;;;;6219328;28;20173;-74
2023/12/01 12:43:10;;;;;;;;;;;;;;;;;;6233188;28;20068;-74
2023/12/01 12:46:13;;;;;;;6.18;3.38;;;;;;;;;;6229415;28;19984;-74
2023/12/01 12:49:19;;;;;;;11.70;6.35;;;;;;;;;;6228476;28;20091;-75
2023/12/01 12:52:24;;;;;;;6.10;3.97;;;;;;;;;;6223115;28;20503;-77
2023/12/01 12:55:27;;;;;;;10.88;3.85;;;;;;;;;;6204901;28;20590;-81
2023/12/01 12:58:29;;;;;;;8.52;3.88;;;;;;;;;;6230026;28;20045;-81
2023/12/01 13:01:33;;;;;;;7.05;2.88;;;;;;;;;;6210060;28;20053;-81
2023/12/01 13:04:36;;;;;;;8.88;2.15;;;;;;;;;;6213302;28;20140;-78
2023/12/01 13:07:38;;;;;;;4.15;1.42;;;;;;;;;;6197043;28;20041;-78
2023/12/01 13:10:41;;;;;;;5.35;2.72;;;;;;;;;;6205050;28;20062;-77
2023/12/01 13:13:46;;;;;;;4.40;1.75;;;;;;;;;;6219818;28;20059;-77
2023/12/01 13:16:49;;;;;;;5.30;2.38;;;;;;;;;;6203411;28;20438;-76
2023/12/01 13:19:58;;;;;;;4.78;2.03;;;;;;;;;;6227675;28;20049;-76
2023/12/01 13:23:01;;;;;;;4.82;2.10;;;;;;;;;;6183449;28;20057;-77
2023/12/01 13:26:04;;;;;;;5.28;2.47;;;;;;;;;;6210134;28;20056;-77
2023/12/01 13:29:06;;;;;;;6.43;2.88;;;;;;;;;;6216060;28;20045;-77
2023/12/01 13:32:08;;;;;;;7.50;4.53;;;;;;;;;;6219590;28;20049;-76
2023/12/01 13:35:11;;;;;;;7.97;4.30;;;;;;;;;;6203354;28;20054;-78
2023/12/01 13:38:14;;;;;;;4.10;1.70;;;;;;;;;;6220694;28;20034;-77
2023/12/01 13:41:17;;;;;;;3.67;2.20;;;;;;;;;;6196981;28;20053;-77
2023/12/01 13:44:19;;;;;;;13.35;7.25;;;;;;;;;;6227138;28;20053;-76
2023/12/01 13:47:23;;;;;;;5.40;2.83;;;;;;;;;;6218338;28;20046;-75
2023/12/01 13:50:27;;;;;;;7.97;4.03;;;;;;;;;;6226628;28;20063;-75
2023/12/01 13:53:32;;;;;;;12.15;5.93;;;;;;;;;;6217722;28;20050;-75
2023/12/01 13:56:34;;;;;;;9.57;6.13;;;;;;;;;;6231499;28;20076;-76
2023/12/01 13:59:36;;;;;;;10.48;6.22;;;;;;;;;;6206139;28;20060;-74
2023/12/01 14:02:40;;;;;;;10.35;6.95;;;;;;;;;;6224153;28;20042;-76
2023/12/01 14:05:42;;;;;;;20.38;17.10;;;;;;;;;;6200654;28;20053;-77
2023/12/01 14:08:46;;;;;;;9.52;6.93;;;;;;;;;;6229028;28;20049;-77
2023/12/01 14:11:49;;;;;;;7.95;4.03;;;;;;;;;;6234954;28;20045;-77
2023/12/01 14:14:53;;;;;;;8.32;4.50;;;;;;;;;;6224058;28;20056;-76
2023/12/01 14:17:55;;;;;;;8.57;3.55;;;;;;;;;;6224584;28;20038;-75
2023/12/01 14:20:59;;;;;;;6.45;4.72;;;;;;;;;;6218627;28;20046;-75
2023/12/01 14:24:01;;;;;;;17.25;10.25;;;;;;;;;;6238526;28;20104;-76
2023/12/01 14:27:05;;;;;;;15.52;9.40;;;;;;;;;;6245802;28;20080;-75
2023/12/01 14:30:08;;;;;;;18.35;9.82;;;;;;;;;;6243618;28;20582;-74
2023/12/01 14:33:11;;;;;;;16.67;6.95;;;;;;;;;;6234841;28;20050;-78
2023/12/01 14:36:14;;;;;;;12.60;4.45;;;;;;;;;;6212666;28;20053;-77
2023/12/01 14:39:16;;;;;;;9.88;3.40;;;;;;;;;;6235292;28;20038;-74
2023/12/01 14:42:21;;;;;;;10.02;4.82;;;;;;;;;;6239315;28;20068;-75
2023/12/01 14:45:24;;;;;;;7.68;3.25;;;;;;;;;;6207831;28;20106;-78
2023/12/01 14:48:27;;;;;;;5.22;2.83;;;;;;;;;;6233625;28;20072;-75
2023/12/01 14:51:30;;;;;;;4.82;1.90;;;;;;;;;;6271107;28;20092;-77
2023/12/01 14:54:32;;;;;;;4.90;1.75;;;;;;;;;;6235009;28;20058;-78
2023/12/01 14:57:35;;;;;;;11.82;7.72;;;;;;;;;;6216404;28;20128;-76
2023/12/01 15:00:40;;;;;;;6.13;2.78;;;;;;;;;;6225227;28;20084;-76
2023/12/01 15:03:44;;;;;;;11.05;7.03;;;;;;;;;;6222101;28;20045;-75
2023/12/01 15:06:48;;;;;;;11.98;5.40;;;;;;;;;;6241008;28;20041;-76
2023/12/01 15:09:55;;;;;;;13.90;7.82;;;;;;;;;;6232806;28;20053;-77
2023/12/01 15:13:01;;;;;;;12.40;7.50;;;;;;;;;;6212678;28;20060;-78
2023/12/01 15:16:04;;;;;;;7.47;3.40;;;;;;;;;;6214362;28;20099;-78
2023/12/01 15:19:06;;;;;;;7.32;3.75;;;;;;;;;;6227149;28;20048;-77
2023/12/01 15:22:08;;;;;;;17.20;8.05;;;;;;;;;;6227167;28;20564;-78
2023/12/01 15:25:11;;;;;;;28.40;17.92;;;;;;;;;;6217901;28;20056;-78
2023/12/01 15:28:15;;;;;;;18.95;8.15;;;;;;;;;;6218994;28;20154;-77
2023/12/01 15:31:18;;;;;;;22.27;12.20;;;;;;;;;;6210317;28;20068;-78
2023/12/01 15:34:20;;;;;;;8.38;5.03;;;;;;;;;;6214696;28;20981;-78
2023/12/01 15:37:22;;;;;;;6.93;5.40;;;;;;;;;;6235345;28;20514;-76
2023/12/01 15:40:24;;;;;;;44.33;24.73;;;;;;;;;;6185357;28;20060;-76
2023/12/01 15:43:28;;;;;;;41.13;19.20;;;;;;;;;;6208500;28;20558;-76
2023/12/01 15:46:30;;;;;;;23.42;8.30;;;;;;;;;;6199566;28;20041;-77
2023/12/01 15:49:34;;;;;;;15.43;9.00;;;;;;;;;;6200845;28;20537;-77
2023/12/01 15:52:37;;;;;;;13.57;8.23;;;;;;;;;;6228455;28;20080;-77
2023/12/01 15:55:40;;;;;;;8.57;4.05;;;;;;;;;;6226549;28;20518;-76
2023/12/01 15:58:43;;;;;;;9.02;4.30;;;;;;;;;;6220224;28;20743;-77
2023/12/01 16:01:46;;;;;;;11.75;5.90;;;;;;;;;;6235738;28;20570;-77
2023/12/01 16:04:49;;;;;;;14.65;10.25;;;;;;;;;;6226576;28;20148;-76
2023/12/01 16:07:52;;;;;;;7.88;4.32;;;;;;;;;;6221330;28;20048;-77
2023/12/01 16:10:54;;;;;;;4.57;3.00;;;;;;;;;;6206564;28;20042;-77
2023/12/01 16:13:56;;;;;;;5.63;2.28;;;;;;;;;;6219591;28;20057;-76
2023/12/01 16:16:58;;;;;;;8.50;3.72;;;;;;;;;;6212181;28;20061;-77
2023/12/01 16:20:02;;;;;;;9.57;6.22;;;;;;;;;;6216362;28;20568;-76
2023/12/01 16:23:04;;;;;;;14.93;8.15;;;;;;;;;;6203668;28;20049;-77
2023/12/01 16:26:14;;;;;;;8.60;4.38;;;;;;;;;;6212712;28;20046;-76
2023/12/01 16:29:16;;;;;;;16.70;10.35;;;;;;;;;;6225795;28;20509;-75
2023/12/01 16:32:20;;;;;;;9.43;5.22;;;;;;;;;;6208908;28;20594;-73
2023/12/01 16:35:22;;;;;;;8.52;4.63;;;;;;;;;;6226988;28;20973;-74
2023/12/01 16:38:24;;;;;;;16.80;9.85;;;;;;;;;;6198472;28;20053;-74
2023/12/01 16:41:26;;;;;;;16.75;10.18;;;;;;;;;;6233539;28;20099;-81
2023/12/01 16:44:29;;;;;;;5.53;3.50;;;;;;;;;;6205585;28;20067;-79
2023/12/01 16:47:31;;;;;;;6.57;4.25;;;;;;;;;;6215494;28;20053;-80
2023/12/01 16:50:34;;;;;;;6.55;3.42;;;;;;;;;;6245683;28;20041;-77
2023/12/01 16:53:37;;;;;;;5.32;3.28;;;;;;;;;;6228516;28;20443;-82
2023/12/01 16:56:39;;;;;;;6.90;2.88;;;;;;;;;;6231129;28;20033;-80
2023/12/01 16:59:43;;;;;;;7.43;3.58;;;;;;;;;;6202191;28;20462;-81
2023/12/01 17:02:46;;;;;;;11.27;5.95;;;;;;;;;;6215931;28;20200;-82
2023/12/01 17:05:50;;;;;;;11.80;6.72;;;;;;;;;;6214948;28;20099;-82
2023/12/01 17:08:52;;;;;;;5.20;2.83;;;;;;;;;;6208296;28;20143;-87
2023/12/01 17:11:55;;;;;;;12.85;9.57;;;;;;;;;;6224054;28;20049;-86
2023/12/01 17:14:58;;;;;;;13.75;7.25;;;;;;;;;;6212833;28;20045;-84
2023/12/01 17:18:02;;;;;;;10.20;5.88;;;;;;;;;;6184185;28;20069;-82
2023/12/01 17:21:13;;;;;;;20.33;9.25;;;;;;;;;;6210386;28;20060;-86
2023/12/01 17:24:16;;;;;;;66.13;33.78;;;;;;;;;;6194068;28;20041;-81
2023/12/01 17:27:19;;;;;;;17.65;9.90;;;;;;;;;;6219717;28;20030;-82
2023/12/01 17:30:22;;;;;;;29.88;15.95;;;;;;;;;;6217760;28;20185;-84
2023/12/01 17:33:27;;;;;;;8.18;3.88;;;;;;;;;;6212547;28;20056;-85
2023/12/01 17:37:03;;;;;;;24.98;13.77;;;;;;;;;;6247985;28;20134;-84
2023/12/01 17:40:07;;;;;;;5.28;3.38;;;;;;;;;;6226547;28;20810;-78
2023/12/01 17:43:09;;;;;;;6.18;3.58;;;;;;;;;;6242378;28;20037;-78
2023/12/01 17:46:11;;;;;;;4.38;2.15;;;;;;;;;;6241612;28;20053;-77
2023/12/01 17:49:14;;;;;;;7.55;3.20;;;;;;;;;;6201019;28;20049;-80
2023/12/01 17:52:16;;;;;;;5.68;3.10;;;;;;;;;;6212673;28;20427;-79
2023/12/01 17:55:27;;;;;;;6.78;3.40;;;;;;;;;;6211433;28;20042;-77
2023/12/01 17:58:30;;;;;;;5.63;3.65;;;;;;;;;;6217875;28;20180;-78
2023/12/01 18:01:36;;;;;;;8.02;2.65;;;;;;;;;;6244221;28;20149;-78